Island City, Indiana
Current Conditions -  °F | °C
As of 4:15 PM on Friday 24 Oct 2014 (Local Time) from KDCY Reporting Station
Haze Haze  
Wind Chill: 20°   Ceiling: 4100
Heat Index: 20°   Visibility: 5mi
Dew Point: 12°   Wind: 9mph
Humidity: 58%   Direction: 240°WSW
Pressure: 30.03"   Gusts: NA
Location:  39.0608°N, 87.1852°W
Report Text: KDCY 242015Z AUTO 24008KT 5SM HZ BKN041 20/12 A3003 RMK AO2 T01990115
Loading
Personal Weather Stations






























Interactive Weather Map
Tropical Storm Tracking
New forecast layout! Learn more

10-Day Weather Forecast

Advertisements
Track Severe Weather on mobile